Terminal Aerodrome Forecast
Issued by NWS

Home | Current Version | Previous Version | Text Only | Print | Product List | Glossary On
Versions: 1 2 3 4 5 6 7 8 9 10 11 12 13 14 15 16
000
FTUS46 KSEW 050525
TAFCLM
TAF
KCLM 050525Z 0506/0606 28010KT P6SM SCT200
     FM050900 29008KT P6SM BKN015
     FM051800 30010G18KT P6SM VCSH BKN030 BKN050=

USA.gov is the U.S. government's official web portal to all federal, state and local government web resources and services.